createdAt,value
2017-10-04T00:00:39.517Z,89.2
2017-10-04T00:01:40.189Z,89.7
2017-10-04T00:02:40.936Z,89.3
2017-10-04T00:03:41.701Z,88.9
2017-10-04T00:04:42.411Z,89.3
2017-10-04T00:05:43.235Z,89.2
2017-10-04T00:06:43.931Z,89.0
2017-10-04T00:07:44.675Z,89.2
2017-10-04T00:08:45.645Z,89.0
2017-10-04T00:09:46.352Z,88.9
2017-10-04T00:10:47.092Z,88.6
2017-10-04T00:11:48.115Z,88.5
2017-10-04T00:12:48.886Z,88.9
2017-10-04T00:13:49.595Z,88.0
2017-10-04T00:14:50.432Z,88.3
2017-10-04T00:15:51.192Z,88.3
2017-10-04T00:16:51.908Z,88.2
2017-10-04T00:17:52.653Z,87.9
2017-10-04T00:18:53.801Z,86.6
2017-10-04T00:19:54.513Z,86.8
2017-10-04T00:20:55.213Z,87.5
2017-10-04T00:21:56.107Z,87.8
2017-10-04T00:22:56.753Z,87.7
2017-10-04T00:23:57.457Z,87.6
2017-10-04T00:24:58.239Z,87.2
2017-10-04T00:25:59.051Z,86.8
2017-10-04T00:26:59.765Z,87.4
2017-10-04T00:28:00.551Z,87.1
2017-10-04T00:29:01.535Z,87.2
2017-10-04T00:30:02.469Z,86.7
2017-10-04T00:31:03.190Z,86.9
2017-10-04T00:32:04.008Z,86.9
2017-10-04T00:33:04.739Z,86.8
2017-10-04T00:34:05.828Z,86.3
2017-10-04T00:35:06.663Z,87.0
2017-10-04T00:36:07.401Z,87.7
2017-10-04T00:37:08.167Z,87.0
2017-10-04T00:38:09.026Z,86.8
2017-10-04T00:39:09.692Z,86.7
2017-10-04T00:40:10.605Z,86.4
2017-10-04T00:41:11.344Z,86.4
2017-10-04T00:42:12.055Z,86.4
2017-10-04T00:43:12.786Z,86.8
2017-10-04T00:46:45.660Z,86.8
2017-10-04T00:47:46.446Z,86.7
2017-10-04T00:48:47.187Z,86.9
2017-10-04T00:49:47.910Z,87.1
2017-10-04T00:50:48.618Z,86.6
2017-10-04T00:51:49.524Z,85.7
2017-10-04T00:52:50.267Z,86.9
2017-10-04T00:53:50.961Z,87.2
2017-10-04T00:54:51.806Z,87.7
2017-10-04T00:55:52.544Z,87.9
2017-10-04T00:56:53.305Z,87.4
2017-10-04T00:57:54.040Z,87.5
2017-10-04T00:58:54.784Z,88.2
2017-10-04T00:59:55.638Z,88.0
2017-10-04T01:00:56.505Z,88.0
2017-10-04T01:01:57.256Z,87.6
2017-10-04T01:02:58.160Z,87.6
2017-10-04T01:03:58.919Z,87.8
2017-10-04T01:04:59.621Z,86.6
2017-10-04T01:06:00.393Z,86.4
2017-10-04T01:07:01.232Z,86.6
2017-10-04T01:08:01.971Z,86.4
2017-10-04T01:09:02.711Z,87.0
2017-10-04T01:10:03.466Z,86.3
2017-10-04T01:11:04.216Z,86.5
2017-10-04T01:12:04.995Z,86.5
2017-10-04T01:13:05.913Z,86.7
2017-10-04T01:14:06.583Z,87.1
2017-10-04T01:15:07.316Z,87.4
2017-10-04T01:16:08.099Z,87.6
2017-10-04T01:17:08.842Z,88.1
2017-10-04T01:18:09.657Z,88.5
2017-10-04T01:19:10.790Z,87.3
2017-10-04T01:20:11.710Z,86.8
2017-10-04T01:21:12.440Z,87.5
2017-10-04T01:22:13.191Z,87.8
2017-10-04T01:23:13.874Z,87.0
2017-10-04T01:24:14.649Z,86.7
2017-10-04T01:25:15.453Z,87.0
2017-10-04T01:26:16.185Z,87.2
2017-10-04T01:27:16.882Z,87.3
2017-10-04T01:28:17.601Z,87.6
2017-10-04T01:29:18.338Z,87.8
2017-10-04T01:30:19.145Z,88.1
2017-10-04T01:31:19.902Z,87.9
2017-10-04T01:32:20.696Z,87.7
2017-10-04T01:33:21.624Z,87.6
2017-10-04T01:34:22.349Z,87.8
2017-10-04T01:35:23.083Z,87.7
2017-10-04T01:36:23.853Z,87.3
2017-10-04T01:37:24.621Z,87.1
2017-10-04T01:38:25.352Z,87.5
2017-10-04T01:39:26.062Z,87.4
2017-10-04T01:40:26.808Z,87.0
2017-10-04T01:41:27.487Z,87.8
2017-10-04T01:42:28.343Z,87.3
2017-10-04T01:43:29.252Z,87.2
2017-10-04T01:44:30.085Z,87.2
2017-10-04T01:45:30.738Z,87.4
2017-10-04T01:46:31.537Z,87.8
2017-10-04T01:47:32.315Z,87.9
2017-10-04T01:48:33.097Z,86.9
2017-10-04T01:49:33.812Z,86.6
2017-10-04T01:50:34.631Z,86.9
2017-10-04T01:51:35.349Z,86.9
2017-10-04T01:52:36.098Z,87.9
2017-10-04T01:53:36.881Z,88.2
2017-10-04T01:54:37.668Z,88.4
2017-10-04T01:55:38.377Z,87.7
2017-10-04T01:56:39.108Z,87.7
2017-10-04T01:57:39.892Z,87.4
2017-10-04T01:58:40.682Z,87.1
2017-10-04T01:59:41.442Z,86.2
2017-10-04T02:00:42.240Z,86.3
2017-10-04T02:01:42.929Z,86.9
2017-10-04T02:02:43.732Z,87.3
2017-10-04T02:03:44.431Z,87.6
2017-10-04T02:04:45.191Z,87.0
2017-10-04T02:05:45.988Z,87.3
2017-10-04T02:06:46.654Z,87.3
2017-10-04T02:07:47.394Z,87.9
2017-10-04T02:08:48.118Z,87.4
2017-10-04T02:09:48.913Z,87.4
2017-10-04T02:10:49.661Z,86.8
2017-10-04T02:11:50.399Z,86.9
2017-10-04T02:12:51.144Z,86.6
2017-10-04T02:13:51.909Z,86.7
2017-10-04T02:14:52.642Z,86.8
2017-10-04T02:15:53.402Z,86.3
2017-10-04T02:16:54.101Z,86.3
2017-10-04T02:17:54.902Z,86.5
2017-10-04T02:18:55.714Z,86.2
2017-10-04T02:19:56.500Z,86.4
2017-10-04T02:20:57.187Z,86.2
2017-10-04T02:21:57.977Z,86.8
2017-10-04T02:22:58.748Z,86.6
2017-10-04T02:23:59.532Z,87.5
2017-10-04T02:25:00.366Z,87.2
2017-10-04T02:26:01.018Z,86.7
2017-10-04T02:27:01.720Z,87.0
2017-10-04T02:28:02.462Z,86.5
2017-10-04T02:29:03.178Z,86.8
2017-10-04T02:30:03.932Z,86.6
2017-10-04T02:31:04.722Z,86.7
2017-10-04T02:32:05.459Z,86.9
2017-10-04T02:33:06.182Z,86.7
2017-10-04T02:34:06.914Z,86.9
2017-10-04T02:35:07.721Z,87.4
2017-10-04T02:36:08.405Z,86.9
2017-10-04T02:37:09.146Z,86.5
2017-10-04T02:38:10.029Z,87.1
2017-10-04T02:39:10.747Z,86.5
2017-10-04T02:41:27.049Z,86.8
2017-10-04T02:42:27.896Z,86.6
2017-10-04T02:43:28.621Z,87.0
2017-10-04T02:44:29.316Z,86.7
2017-10-04T02:45:30.068Z,87.2
2017-10-04T02:46:30.858Z,86.8
2017-10-04T02:47:31.558Z,87.0
2017-10-04T02:48:32.312Z,86.9
2017-10-04T02:49:33.037Z,87.3
2017-10-04T02:50:33.754Z,87.5
2017-10-04T02:51:34.511Z,87.6
2017-10-04T02:52:35.262Z,87.4
2017-10-04T02:53:36.039Z,87.7
2017-10-04T02:54:36.835Z,88.2
2017-10-04T02:55:37.661Z,88.2
2017-10-04T02:56:38.360Z,87.6
2017-10-04T02:57:39.088Z,87.6
2017-10-04T02:58:39.774Z,88.3
2017-10-04T02:59:40.581Z,88.0
2017-10-04T03:00:41.291Z,88.0
2017-10-04T03:01:42.057Z,87.9
2017-10-04T03:02:42.774Z,88.0
2017-10-04T03:03:43.502Z,87.6
2017-10-04T03:04:44.227Z,87.6
2017-10-04T03:05:45.007Z,87.5
2017-10-04T03:06:45.898Z,87.7
2017-10-04T03:07:51.617Z,88.0
2017-10-04T03:08:52.403Z,88.2
2017-10-04T03:09:53.205Z,88.1
2017-10-04T03:10:53.916Z,88.3
2017-10-04T03:11:54.665Z,87.5
2017-10-04T03:12:55.424Z,88.0
2017-10-04T03:13:56.165Z,87.9
2017-10-04T03:14:57.086Z,87.8
2017-10-04T03:15:57.905Z,87.9
2017-10-04T03:17:03.662Z,87.8
2017-10-04T03:18:04.367Z,87.6
2017-10-04T03:19:05.151Z,87.5
2017-10-04T03:20:05.869Z,87.9
2017-10-04T03:21:11.632Z,87.8
2017-10-04T03:22:12.391Z,87.7
2017-10-04T03:23:13.096Z,87.6
2017-10-04T03:24:13.881Z,88.1
2017-10-04T03:25:14.610Z,88.0
2017-10-04T03:26:15.356Z,88.4
2017-10-04T03:27:16.167Z,87.7
2017-10-04T03:28:16.922Z,88.5
2017-10-04T03:29:17.664Z,88.4
2017-10-04T03:30:18.375Z,88.3
2017-10-04T03:31:19.088Z,88.7
2017-10-04T03:32:19.835Z,88.5
2017-10-04T03:33:20.531Z,88.5
2017-10-04T03:34:21.321Z,88.1
2017-10-04T03:35:22.078Z,88.2
2017-10-04T03:36:22.925Z,88.2
2017-10-04T03:37:23.602Z,88.4
2017-10-04T03:38:24.334Z,88.2
2017-10-04T03:39:25.109Z,88.5
2017-10-04T03:40:26.132Z,88.4
2017-10-04T03:41:26.810Z,88.2
2017-10-04T03:42:27.583Z,88.1
2017-10-04T03:43:28.347Z,88.6
2017-10-04T03:44:29.364Z,88.3
2017-10-04T03:45:30.228Z,88.3
2017-10-04T03:46:31.025Z,88.3
2017-10-04T03:47:31.767Z,87.8
2017-10-04T03:48:32.505Z,87.8
2017-10-04T03:49:33.321Z,88.1
2017-10-04T03:50:34.192Z,88.3
2017-10-04T03:51:34.907Z,88.0
2017-10-04T03:52:35.638Z,88.1
2017-10-04T03:53:36.409Z,88.3
2017-10-04T03:54:37.111Z,89.1
2017-10-04T03:55:37.901Z,88.1
2017-10-04T03:56:38.627Z,88.2
2017-10-04T03:57:39.458Z,88.3
2017-10-04T03:58:40.141Z,87.7
2017-10-04T03:59:41.020Z,88.4
2017-10-04T04:00:41.815Z,88.9
2017-10-04T04:01:42.557Z,88.9
2017-10-04T04:02:43.338Z,88.4
2017-10-04T04:03:44.108Z,88.4
2017-10-04T04:04:44.939Z,88.5
2017-10-04T04:05:45.727Z,88.5
2017-10-04T04:06:46.388Z,87.9
2017-10-04T04:07:47.155Z,87.9
2017-10-04T04:08:47.937Z,88.0
2017-10-04T04:09:48.651Z,88.0
2017-10-04T04:10:49.377Z,88.1
2017-10-04T04:11:50.078Z,87.9
2017-10-04T04:12:50.859Z,87.8
2017-10-04T04:13:51.581Z,87.9
2017-10-04T04:14:52.295Z,88.4
2017-10-04T04:15:53.010Z,87.6
2017-10-04T04:16:53.726Z,88.0
2017-10-04T04:17:54.428Z,87.9
2017-10-04T04:18:55.255Z,87.7
2017-10-04T04:20:58.405Z,87.3
2017-10-04T04:21:59.237Z,87.5
2017-10-04T04:22:59.965Z,87.8
2017-10-04T04:24:00.733Z,87.5
2017-10-04T04:25:01.566Z,87.8
2017-10-04T04:26:02.303Z,87.9
2017-10-04T04:27:03.326Z,87.7
2017-10-04T04:28:04.067Z,87.5
2017-10-04T04:29:04.790Z,87.7
2017-10-04T04:30:05.569Z,87.6
2017-10-04T04:31:06.407Z,87.5
2017-10-04T04:32:07.144Z,87.6
2017-10-04T04:33:07.874Z,87.7
2017-10-04T04:34:08.709Z,87.6
2017-10-04T04:35:09.681Z,88.4
2017-10-04T04:36:10.451Z,88.0
2017-10-04T04:37:11.191Z,88.2
2017-10-04T04:38:12.095Z,88.5
2017-10-04T04:39:12.814Z,88.4
2017-10-04T04:40:13.891Z,88.8
2017-10-04T04:41:14.877Z,88.8
2017-10-04T04:42:15.553Z,88.9
2017-10-04T04:43:16.327Z,88.4
2017-10-04T04:44:17.005Z,89.2
2017-10-04T04:45:17.776Z,89.0
2017-10-04T04:46:18.491Z,89.7
2017-10-04T04:47:19.444Z,89.5
2017-10-04T04:48:20.162Z,89.0
2017-10-04T04:49:20.902Z,89.1
2017-10-04T04:50:21.656Z,89.0
2017-10-04T04:51:22.370Z,88.5
2017-10-04T04:52:23.104Z,89.0
2017-10-04T04:53:23.830Z,88.6
2017-10-04T04:54:24.633Z,88.4
2017-10-04T04:55:25.367Z,88.9
2017-10-04T04:56:26.176Z,88.4
2017-10-04T04:57:26.904Z,89.0
2017-10-04T04:58:27.793Z,88.9
2017-10-04T04:59:28.961Z,89.4
2017-10-04T05:00:30.120Z,88.7
2017-10-04T05:01:30.784Z,88.4
2017-10-04T05:02:31.506Z,88.8
2017-10-04T05:03:32.259Z,88.5
2017-10-04T05:04:33.049Z,88.0
2017-10-04T05:05:33.786Z,88.4
2017-10-04T05:06:34.606Z,88.1
2017-10-04T05:07:35.366Z,88.7
2017-10-04T05:08:36.200Z,88.2
2017-10-04T05:09:37.255Z,88.5
2017-10-04T05:10:37.923Z,88.0
2017-10-04T05:11:39.360Z,88.4
2017-10-04T05:12:40.023Z,88.4
2017-10-04T05:13:40.745Z,88.4
2017-10-04T05:14:41.676Z,88.6
2017-10-04T05:15:42.979Z,88.4
2017-10-04T05:16:43.809Z,89.2
2017-10-04T05:17:44.553Z,88.8
2017-10-04T05:18:45.241Z,88.5
2017-10-04T05:19:46.322Z,88.0
2017-10-04T05:20:47.016Z,88.7
2017-10-04T05:21:48.126Z,88.5
2017-10-04T05:22:49.478Z,87.6
2017-10-04T05:23:50.152Z,87.6
2017-10-04T05:24:50.913Z,88.1
2017-10-04T05:25:51.664Z,88.2
2017-10-04T05:26:52.585Z,88.2
2017-10-04T05:27:53.454Z,87.8
2017-10-04T05:28:54.176Z,88.0
2017-10-04T05:29:55.076Z,88.2
2017-10-04T05:30:56.109Z,88.2
2017-10-04T05:31:56.931Z,88.0
2017-10-04T05:32:57.749Z,87.9
2017-10-04T05:33:58.538Z,88.6
2017-10-04T05:34:59.248Z,88.0
2017-10-04T05:36:00.283Z,87.8
2017-10-04T05:37:00.952Z,88.3
2017-10-04T05:38:01.693Z,88.1
2017-10-04T05:39:02.395Z,87.9
2017-10-04T05:40:03.230Z,88.0
2017-10-04T05:41:03.947Z,87.5
2017-10-04T05:42:04.891Z,88.0
2017-10-04T05:43:05.807Z,88.1
2017-10-04T05:44:06.525Z,88.7
2017-10-04T05:45:07.337Z,88.6
2017-10-04T05:46:08.077Z,89.3
2017-10-04T05:47:08.819Z,88.3
2017-10-04T05:48:09.891Z,88.2
2017-10-04T05:49:10.582Z,87.9
2017-10-04T05:50:11.278Z,88.4
2017-10-04T05:51:12.293Z,88.0
2017-10-04T05:52:13.035Z,88.4
2017-10-04T05:53:13.776Z,88.4
2017-10-04T05:54:14.526Z,88.0
2017-10-04T05:55:15.305Z,88.0
2017-10-04T05:56:16.000Z,88.4
2017-10-04T05:57:16.746Z,87.8
2017-10-04T05:58:17.730Z,88.4
2017-10-04T05:59:20.142Z,87.9
2017-10-04T06:00:21.535Z,88.0
2017-10-04T06:01:22.748Z,87.9
2017-10-04T06:02:23.670Z,87.6
2017-10-04T06:03:24.904Z,87.5
2017-10-04T06:04:25.580Z,88.2
2017-10-04T06:05:26.404Z,88.3
2017-10-04T06:06:27.238Z,88.3
2017-10-04T06:07:28.121Z,88.1
2017-10-04T06:08:33.974Z,88.1
2017-10-04T06:09:35.618Z,87.7
2017-10-04T06:10:36.400Z,87.5
2017-10-04T06:11:37.761Z,87.6
2017-10-04T06:12:38.610Z,86.7
2017-10-04T06:13:39.766Z,86.7
2017-10-04T06:14:40.738Z,87.0
2017-10-04T06:15:41.456Z,87.7
2017-10-04T06:16:42.223Z,87.9
2017-10-04T06:17:42.949Z,87.2
2017-10-04T06:18:43.683Z,86.6
2017-10-04T06:19:44.487Z,86.8
2017-10-04T06:20:45.175Z,85.7
2017-10-04T06:21:45.939Z,86.4
2017-10-04T06:22:46.706Z,87.5
2017-10-04T06:23:47.397Z,87.1
2017-10-04T06:24:48.202Z,86.3
2017-10-04T06:25:48.943Z,85.4
2017-10-04T06:26:49.704Z,86.0
2017-10-04T06:27:50.538Z,86.6
2017-10-04T06:28:51.274Z,85.3
2017-10-04T06:29:52.873Z,86.5
2017-10-04T06:30:54.735Z,85.7
2017-10-04T06:31:55.976Z,84.7
2017-10-04T06:32:56.701Z,85.2
2017-10-04T06:33:57.472Z,85.8
2017-10-04T06:34:58.229Z,85.9
2017-10-04T06:35:58.949Z,86.1
2017-10-04T06:36:59.871Z,86.2
2017-10-04T06:38:00.714Z,85.7
2017-10-04T06:40:03.242Z,83.1
2017-10-04T06:41:07.249Z,84.0
2017-10-04T06:42:05.851Z,83.9
2017-10-04T06:43:06.572Z,84.4
2017-10-04T06:44:07.400Z,85.6
2017-10-04T06:45:11.444Z,83.8
2017-10-04T06:47:25.656Z,84.5
2017-10-04T06:48:28.887Z,85.4
2017-10-04T06:49:28.326Z,86.8
2017-10-04T06:50:29.066Z,86.6
2017-10-04T06:51:29.881Z,85.3
2017-10-04T06:52:30.660Z,85.1
2017-10-04T06:53:31.352Z,83.2
2017-10-04T06:54:32.223Z,83.1
2017-10-04T06:55:32.954Z,82.9
2017-10-04T06:56:33.645Z,84.6
2017-10-04T06:57:34.789Z,84.5
2017-10-04T06:58:35.553Z,84.4
2017-10-04T06:59:36.340Z,85.4
2017-10-04T07:00:37.280Z,85.3
2017-10-04T07:01:37.930Z,85.6
2017-10-04T07:02:38.756Z,80.6
2017-10-04T07:03:39.476Z,80.7
2017-10-04T07:04:40.194Z,77.7
2017-10-04T07:05:40.939Z,76.4
2017-10-04T07:06:41.709Z,74.5
2017-10-04T07:07:42.458Z,73.7
2017-10-04T07:08:43.332Z,73.8
2017-10-04T07:09:44.077Z,72.5
2017-10-04T07:10:44.840Z,72.2
2017-10-04T07:11:45.664Z,71.2
2017-10-04T07:12:46.423Z,67.7
2017-10-04T07:13:47.316Z,66.2
2017-10-04T07:14:48.085Z,65.5
2017-10-04T07:15:49.092Z,62.2
2017-10-04T07:16:49.970Z,60.6
2017-10-04T07:17:51.020Z,61.7
2017-10-04T07:18:51.777Z,58.7
2017-10-04T07:19:52.523Z,57.2
2017-10-04T07:20:53.230Z,56.0
2017-10-04T07:21:53.958Z,58.2
2017-10-04T07:22:54.732Z,59.0
2017-10-04T07:23:55.453Z,57.2
2017-10-04T07:24:56.316Z,59.7
2017-10-04T07:25:57.171Z,60.5
2017-10-04T07:26:57.973Z,62.7
2017-10-04T07:27:58.899Z,61.3
2017-10-04T07:28:59.671Z,62.8
2017-10-04T07:30:00.686Z,62.7
2017-10-04T07:31:01.428Z,62.7
2017-10-04T07:32:02.197Z,62.3
2017-10-04T07:33:03.010Z,64.0
2017-10-04T07:34:03.777Z,64.0
2017-10-04T07:35:04.598Z,61.4
2017-10-04T07:36:05.320Z,62.8
2017-10-04T07:37:06.019Z,64.1
2017-10-04T07:38:06.760Z,63.6
2017-10-04T07:39:07.595Z,65.3
2017-10-04T07:40:08.390Z,66.5
2017-10-04T07:41:09.265Z,66.3
2017-10-04T07:42:09.981Z,68.3
2017-10-04T07:43:10.694Z,70.3
2017-10-04T07:44:11.501Z,68.9
2017-10-04T07:45:12.658Z,68.2
2017-10-04T07:46:13.440Z,67.4
2017-10-04T07:47:14.267Z,66.8
2017-10-04T07:48:14.964Z,67.6
2017-10-04T07:49:16.076Z,64.9
2017-10-04T07:50:16.893Z,66.1
2017-10-04T07:51:18.191Z,64.5
2017-10-04T07:52:19.360Z,63.3
2017-10-04T07:53:20.080Z,64.1
2017-10-04T07:55:22.628Z,60.8
2017-10-04T07:56:23.454Z,59.6
2017-10-04T07:57:24.227Z,59.6
2017-10-04T07:58:25.114Z,58.7
2017-10-04T07:59:25.953Z,56.9
2017-10-04T08:01:42.174Z,54.3
2017-10-04T08:02:42.897Z,53.2
2017-10-04T08:03:43.688Z,53.9
2017-10-04T08:04:44.489Z,52.9
2017-10-04T08:05:45.652Z,55.1
2017-10-04T08:06:46.436Z,56.5
2017-10-04T08:07:47.108Z,57.3
2017-10-04T08:08:47.968Z,57.6
2017-10-04T08:09:48.707Z,59.1
2017-10-04T08:10:49.547Z,59.4
2017-10-04T08:11:50.306Z,59.5
2017-10-04T08:12:51.032Z,59.1
2017-10-04T08:13:51.796Z,57.0
2017-10-04T08:14:52.824Z,57.4
2017-10-04T08:15:53.654Z,57.5
2017-10-04T08:16:54.419Z,55.5
2017-10-04T08:17:55.260Z,55.4
2017-10-04T08:18:56.020Z,54.9
2017-10-04T08:19:56.750Z,54.5
2017-10-04T08:20:57.493Z,54.9
2017-10-04T08:21:58.389Z,53.0
2017-10-04T08:22:59.821Z,52.3
2017-10-04T08:24:00.583Z,50.6
2017-10-04T08:25:01.303Z,50.3
2017-10-04T08:26:02.042Z,50.4
2017-10-04T08:27:03.187Z,49.2
2017-10-04T08:28:03.846Z,49.6
2017-10-04T08:29:04.822Z,51.0
2017-10-04T08:30:05.678Z,52.3
2017-10-04T08:31:06.506Z,54.8
2017-10-04T08:32:07.290Z,53.1
2017-10-04T08:33:07.967Z,51.9
2017-10-04T08:34:09.593Z,52.7
2017-10-04T08:35:10.478Z,52.9
2017-10-04T08:37:12.951Z,52.0
2017-10-04T08:38:13.718Z,50.8
2017-10-04T08:39:14.570Z,53.7
2017-10-04T08:40:15.374Z,53.9
2017-10-04T08:41:16.121Z,52.9
2017-10-04T08:42:17.736Z,52.2
2017-10-04T08:43:18.507Z,51.9
2017-10-04T08:44:19.521Z,52.9
2017-10-04T08:45:20.519Z,51.3
2017-10-04T08:46:21.415Z,52.7
2017-10-04T08:47:22.118Z,51.5
2017-10-04T08:48:22.891Z,53.5
2017-10-04T08:49:24.506Z,52.5
2017-10-04T08:50:25.400Z,54.9
2017-10-04T08:51:26.100Z,55.5
2017-10-04T08:52:27.068Z,51.0
2017-10-04T08:53:27.751Z,52.9
2017-10-04T08:54:28.597Z,53.8
2017-10-04T08:55:29.737Z,54.1
2017-10-04T08:56:31.099Z,53.8
2017-10-04T08:57:31.802Z,52.9
2017-10-04T08:58:32.723Z,55.0
2017-10-04T08:59:33.472Z,55.5
2017-10-04T09:00:34.287Z,53.1
2017-10-04T09:01:35.020Z,52.7
2017-10-04T09:02:35.732Z,52.2
2017-10-04T09:03:36.491Z,51.6
2017-10-04T09:04:37.216Z,52.1
2017-10-04T09:05:38.028Z,53.6
2017-10-04T09:07:40.506Z,52.3
2017-10-04T09:08:41.291Z,50.8
2017-10-04T09:09:42.096Z,50.0
2017-10-04T09:10:42.910Z,51.7
2017-10-04T09:11:43.693Z,53.0
2017-10-04T09:12:44.873Z,51.7
2017-10-04T09:13:45.703Z,51.2
2017-10-04T09:14:46.584Z,52.0
2017-10-04T09:16:50.487Z,52.0
2017-10-04T09:17:52.692Z,52.1
2017-10-04T09:19:55.175Z,53.5
2017-10-04T09:20:56.140Z,54.1
2017-10-04T09:21:56.909Z,55.5
2017-10-04T09:22:57.596Z,53.5
2017-10-04T09:23:58.386Z,52.5
2017-10-04T09:24:59.518Z,50.2
2017-10-04T09:26:00.294Z,52.1
2017-10-04T09:27:01.109Z,52.1
2017-10-04T09:28:02.104Z,50.6
2017-10-04T09:29:02.839Z,49.8
2017-10-04T09:30:03.631Z,53.0
2017-10-04T09:31:04.466Z,52.0
2017-10-04T09:32:05.735Z,49.9
2017-10-04T09:33:06.456Z,49.7
2017-10-04T09:34:07.334Z,48.6
2017-10-04T09:35:08.058Z,50.8
2017-10-04T09:36:08.833Z,53.0
2017-10-04T09:37:09.727Z,52.0
2017-10-04T09:38:10.473Z,51.6
2017-10-04T09:39:11.630Z,51.9
2017-10-04T09:40:12.836Z,52.1
2017-10-04T09:41:13.536Z,53.9
2017-10-04T09:42:14.669Z,52.2
2017-10-04T09:43:15.490Z,51.0
2017-10-04T09:44:16.224Z,53.0
2017-10-04T09:45:17.728Z,53.1
2017-10-04T09:46:18.510Z,51.8
2017-10-04T09:47:19.355Z,53.2
2017-10-04T09:48:20.054Z,54.2
2017-10-04T09:49:20.832Z,54.5
2017-10-04T09:50:21.613Z,53.9
2017-10-04T09:51:23.184Z,55.3
2017-10-04T09:52:23.906Z,55.7
2017-10-04T09:53:24.706Z,55.3
2017-10-04T09:54:25.492Z,55.3
2017-10-04T09:55:26.304Z,57.2
2017-10-04T09:56:27.024Z,55.8
2017-10-04T09:57:27.943Z,56.0
2017-10-04T09:58:28.774Z,55.2
2017-10-04T09:59:29.630Z,55.4
2017-10-04T10:00:30.450Z,55.5
2017-10-04T10:01:31.172Z,57.0
2017-10-04T10:02:31.939Z,56.6
2017-10-04T10:03:32.809Z,57.4
2017-10-04T10:04:33.555Z,57.2
2017-10-04T10:05:34.505Z,58.0
2017-10-04T10:06:35.341Z,57.7
2017-10-04T10:07:36.067Z,57.5
2017-10-04T10:08:36.834Z,57.6
2017-10-04T10:09:37.804Z,58.9
2017-10-04T10:10:38.490Z,57.2
2017-10-04T10:11:39.413Z,56.3
2017-10-04T10:12:40.238Z,55.9
2017-10-04T10:13:40.959Z,56.6
2017-10-04T10:14:41.662Z,56.3
2017-10-04T10:15:42.443Z,56.4
2017-10-04T10:16:43.389Z,56.8
2017-10-04T10:17:44.297Z,56.1
2017-10-04T10:18:45.073Z,57.3
2017-10-04T10:19:46.005Z,57.5
2017-10-04T10:20:46.939Z,57.6
2017-10-04T10:21:47.665Z,56.8
2017-10-04T10:22:48.479Z,56.9
2017-10-04T10:23:49.196Z,57.6
2017-10-04T10:24:49.948Z,57.1
2017-10-04T10:25:50.651Z,58.7
2017-10-04T10:26:51.640Z,57.9
2017-10-04T10:27:52.835Z,58.0
2017-10-04T10:28:53.558Z,58.0
2017-10-04T10:29:54.463Z,58.1
2017-10-04T10:30:55.613Z,58.1
2017-10-04T10:31:56.299Z,57.4
2017-10-04T10:32:57.044Z,57.0
2017-10-04T10:33:57.888Z,57.6
2017-10-04T10:34:58.622Z,57.1
2017-10-04T10:35:59.389Z,57.7
2017-10-04T10:37:00.186Z,58.0
2017-10-04T10:38:00.916Z,59.7
2017-10-04T10:39:02.014Z,59.7
2017-10-04T10:40:02.789Z,58.7
2017-10-04T10:41:03.544Z,58.0
2017-10-04T10:42:04.301Z,59.6
2017-10-04T10:43:05.135Z,58.8
2017-10-04T10:44:05.932Z,58.9
2017-10-04T10:45:06.694Z,57.2
2017-10-04T10:46:07.436Z,56.2
2017-10-04T10:47:08.629Z,57.8
2017-10-04T10:48:09.534Z,59.0
2017-10-04T10:49:10.271Z,58.8
2017-10-04T10:50:11.112Z,58.0
2017-10-04T10:51:12.024Z,57.2
2017-10-04T10:52:12.746Z,56.7
2017-10-04T10:53:13.610Z,55.9
2017-10-04T10:54:14.460Z,57.4
2017-10-04T10:55:15.253Z,57.1
2017-10-04T10:56:15.978Z,58.6
2017-10-04T10:57:16.795Z,57.4
2017-10-04T10:58:17.538Z,57.1
2017-10-04T10:59:18.370Z,56.6
2017-10-04T11:00:19.140Z,56.2
2017-10-04T11:01:20.012Z,56.4
2017-10-04T11:02:20.825Z,56.9
2017-10-04T11:03:21.543Z,57.9
2017-10-04T11:04:22.269Z,56.7
2017-10-04T11:05:23.062Z,56.4
2017-10-04T11:06:23.793Z,58.9
2017-10-04T11:07:24.550Z,59.4
2017-10-04T11:08:25.367Z,58.7
2017-10-04T11:09:26.120Z,57.7
2017-10-04T11:10:26.898Z,58.1
2017-10-04T11:11:27.706Z,57.4
2017-10-04T11:12:28.627Z,57.5
2017-10-04T11:13:29.452Z,57.1
2017-10-04T11:14:30.282Z,58.3
2017-10-04T11:15:31.134Z,55.5
2017-10-04T11:16:31.846Z,56.8
2017-10-04T11:17:32.560Z,60.4
2017-10-04T11:18:33.420Z,59.0
2017-10-04T11:19:34.236Z,58.5
2017-10-04T11:20:34.972Z,58.6
2017-10-04T11:21:36.129Z,58.6
2017-10-04T11:22:36.929Z,57.4
2017-10-04T11:23:37.642Z,58.8
2017-10-04T11:24:38.386Z,57.4
2017-10-04T11:25:39.252Z,58.9
2017-10-04T11:26:39.984Z,57.5
2017-10-04T11:27:40.840Z,58.2
2017-10-04T11:28:41.669Z,60.4
2017-10-04T11:29:42.498Z,60.4
2017-10-04T11:30:43.303Z,58.9
2017-10-04T11:31:44.279Z,57.3
2017-10-04T11:32:45.101Z,59.1
2017-10-04T11:33:45.787Z,61.8
2017-10-04T11:34:46.589Z,60.5
2017-10-04T11:37:03.236Z,62.8
2017-10-04T11:38:04.189Z,62.9
2017-10-04T11:39:05.033Z,61.2
2017-10-04T11:40:05.844Z,60.3
2017-10-04T11:41:06.657Z,62.7
2017-10-04T11:42:07.393Z,62.4
2017-10-04T11:43:08.207Z,64.4
2017-10-04T11:44:09.229Z,64.7
2017-10-04T11:45:10.305Z,66.2
2017-10-04T11:46:11.133Z,62.6
2017-10-04T11:47:12.399Z,64.6
2017-10-04T11:48:13.205Z,63.9
2017-10-04T11:49:13.969Z,64.1
2017-10-04T11:50:14.777Z,64.9
2017-10-04T11:51:15.501Z,63.5
2017-10-04T11:52:16.293Z,63.3
2017-10-04T11:53:17.016Z,63.5
2017-10-04T11:54:17.828Z,64.7
2017-10-04T11:55:18.555Z,66.6
2017-10-04T11:56:19.365Z,65.5
2017-10-04T11:57:20.182Z,66.3
2017-10-04T11:58:20.923Z,64.6
2017-10-04T11:59:21.686Z,66.1
2017-10-04T12:00:23.082Z,65.1
2017-10-04T12:01:23.752Z,66.7
2017-10-04T12:02:24.540Z,67.3
2017-10-04T12:03:25.254Z,66.9
2017-10-04T12:04:26.027Z,65.1
2017-10-04T12:05:26.900Z,64.4
2017-10-04T12:06:27.677Z,64.7
2017-10-04T12:07:28.464Z,65.5
2017-10-04T12:08:29.204Z,63.7
2017-10-04T12:09:30.138Z,62.4
2017-10-04T12:10:30.957Z,62.5
2017-10-04T12:11:31.745Z,61.9
2017-10-04T12:12:32.584Z,62.0
2017-10-04T12:13:33.268Z,61.0
2017-10-04T12:14:34.037Z,61.5
2017-10-04T12:15:34.759Z,61.4
2017-10-04T12:16:35.520Z,61.0
2017-10-04T12:17:36.300Z,62.3
2017-10-04T12:18:37.387Z,61.9
2017-10-04T12:31:47.667Z,59.4
2017-10-04T12:49:00.263Z,59.4
2017-10-04T13:28:29.346Z,59.3
2017-10-04T13:29:30.094Z,59.5
2017-10-04T13:30:30.899Z,60.1
2017-10-04T13:31:32.148Z,61.4
2017-10-04T13:32:33.217Z,60.2
2017-10-04T13:33:34.215Z,60.3
2017-10-04T13:34:34.957Z,62.0
2017-10-04T13:35:35.661Z,62.0
2017-10-04T13:36:36.448Z,60.9
2017-10-04T13:37:37.177Z,59.4
2017-10-04T13:38:37.865Z,60.8
2017-10-04T13:39:39.373Z,63.5
2017-10-04T13:40:40.150Z,61.1
2017-10-04T13:41:40.848Z,61.0
2017-10-04T13:42:41.621Z,61.2
2017-10-04T13:43:42.547Z,62.9
2017-10-04T13:44:43.321Z,63.8
2017-10-04T13:45:44.295Z,62.3
2017-10-04T13:46:45.024Z,63.4
2017-10-04T13:47:46.076Z,62.1
2017-10-04T13:48:47.034Z,63.0
2017-10-04T13:49:47.925Z,61.9
2017-10-04T13:50:48.766Z,61.0
2017-10-04T13:51:49.435Z,65.4
2017-10-04T13:52:50.132Z,62.1
2017-10-04T13:53:50.843Z,60.9
2017-10-04T13:54:51.594Z,61.1
2017-10-04T13:55:52.309Z,61.0
2017-10-04T13:56:53.183Z,60.4
2017-10-04T13:57:54.073Z,62.4
2017-10-04T13:58:54.780Z,64.1
2017-10-04T13:59:55.478Z,62.5
2017-10-04T14:00:56.488Z,62.2
2017-10-04T14:01:57.309Z,61.8
2017-10-04T14:02:58.090Z,60.9
2017-10-04T14:03:58.810Z,60.4
2017-10-04T14:04:59.614Z,61.9
2017-10-04T14:06:00.340Z,62.9
2017-10-04T14:07:01.104Z,63.1
2017-10-04T14:08:01.797Z,62.6
2017-10-04T14:09:02.691Z,63.6
2017-10-04T14:10:03.362Z,62.5
2017-10-04T14:11:04.150Z,62.6
2017-10-04T14:12:04.831Z,61.9
2017-10-04T14:13:05.584Z,62.3
2017-10-04T14:14:06.402Z,62.8
2017-10-04T14:15:07.139Z,63.8
2017-10-04T14:16:07.961Z,64.8
2017-10-04T14:17:08.653Z,63.4
2017-10-04T14:18:09.525Z,62.6
2017-10-04T14:19:10.251Z,63.1
2017-10-04T14:20:10.969Z,62.9
2017-10-04T14:21:11.681Z,61.8
2017-10-04T14:22:12.501Z,61.6
2017-10-04T14:23:13.328Z,62.1
2017-10-04T14:24:14.599Z,59.4
2017-10-04T14:25:15.297Z,60.5
2017-10-04T14:26:16.029Z,61.4
2017-10-04T14:27:16.763Z,63.3
2017-10-04T14:28:17.465Z,62.0
2017-10-04T14:29:18.191Z,61.2
2017-10-04T14:30:19.156Z,61.8
2017-10-04T14:31:20.168Z,63.0
2017-10-04T14:32:21.019Z,63.7
2017-10-04T14:33:21.744Z,63.9
2017-10-04T14:34:22.541Z,63.1
2017-10-04T14:35:23.519Z,64.0
2017-10-04T14:36:24.421Z,62.8
2017-10-04T14:37:25.256Z,62.2
2017-10-04T14:38:26.003Z,62.2
2017-10-04T14:39:26.808Z,63.0
2017-10-04T14:40:27.595Z,64.5
2017-10-04T14:41:28.348Z,62.5
2017-10-04T14:42:29.116Z,63.1
2017-10-04T14:43:29.918Z,63.8
2017-10-04T14:44:30.725Z,64.4
2017-10-04T14:45:31.482Z,64.7
2017-10-04T14:46:32.312Z,62.6
2017-10-04T14:47:33.092Z,62.0
2017-10-04T14:48:33.826Z,60.9
2017-10-04T14:49:34.814Z,63.2
2017-10-04T14:50:35.602Z,62.7
2017-10-04T14:51:36.651Z,61.0